To NAV CANADA Home Page Login to a new session Search on AWWS site Disclaimer Vers la page française équivalente Tips FAQ What's new on the site To the Forecasts and Observations / NOTAM section To "File a Flight Plan" website Publications and other links Update of the User's profile FIC Telephone Numbers My Weather Data Folder Route Weather Data Regional Weather Data Local Weather Data To the Forecasts and Observations / NOTAM section
Request Generated 05/24/2018 at 00:06:08 UTC . Weather information available at that time is displayed.

METAR/TAF

If you find any discrepancies between the coded METAR/TAF and the plain language METAR/TAF please use the coded METAR/TAF. LWIS bulletins are not decoded in plain language.

CALGARY/SPRINGBANK/AB    (show WxCam)

METAR CYBW 240000Z AUTO 15016KT 9SM FEW095 24/04 A2982 RMK SLP097 DENSITY ALT 6000FT=
METAR
LOCATION
CYBW - CALGARY/SPRINGBANK/AB
DATE - TIME
24 MAY 2018 - 0000 UTC
WIND
150 TRUE @ 16  KNOTS
VISIBILITY
9 STAT.  MILES
RUNWAY VISUAL RANGE
WEATHER
CLOUDINESS
FEW CLOUDS (1/8 - 2/8) 9500  FT
TEMP / DEWPOINT
24 C / 4 C
ALTIMETER
29.82 IN HG
RECENT WEATHER
WIND SHEAR

METAR CYBW 232300Z AUTO 14008G17KT 9SM SCT110 25/03 A2983 RMK SLP098 DENSITY ALT 6100FT=
METAR
LOCATION
CYBW - CALGARY/SPRINGBANK/AB
DATE - TIME
23 MAY 2018 - 2300 UTC
WIND
140 TRUE @ 8  KNOTS
GUSTS
17 KNOTS
VISIBILITY
9 STAT.  MILES
RUNWAY VISUAL RANGE
WEATHER
CLOUDINESS
SCATTERED CLOUDS (3/8 - 4/8) 11000  FT
TEMP / DEWPOINT
25 C / 3 C
ALTIMETER
29.83 IN HG
RECENT WEATHER
WIND SHEAR

METAR CYBW 232200Z AUTO 15011KT 130V230 9SM BKN100 BKN120 26/03 A2984 RMK LTNG DIST SE SLP100 DENSITY ALT 6100FT=
METAR
LOCATION
CYBW - CALGARY/SPRINGBANK/AB
DATE - TIME
23 MAY 2018 - 2200 UTC
WIND
150 TRUE @ 11  KNOTS
VARIATION
130 <-> 230  DEG
VISIBILITY
9 STAT.  MILES
RUNWAY VISUAL RANGE
WEATHER
CLOUDINESS
BROKEN CLOUDS (5/8 - 7/8) 10000  FT
BROKEN CLOUDS (5/8 - 7/8) 12000  FT
TEMP / DEWPOINT
26 C / 3 C
ALTIMETER
29.84 IN HG
RECENT WEATHER
WIND SHEAR

TAF CYBW 232338Z 2400/2404 14010KT P6SM SCT100 RMK FCST BASED ON AUTO OBS. NXT FCST WILL BE ISSUED AT 241145Z=
TAF
LOCATION

CYBW - CALGARY/SPRINGBANK/AB
VALIDITY [UTC]
23 MAY - 2338 to
24 MAY - 0400
 
TIMES
[UTC]
WIND
[DEGREES TRUE]
VISIBILITY
[STAT. MILES]
WEATHER
CLOUDINESS
[FEET AGL]
 
24 MAY - 0000 to
24 MAY - 0400
140 @ 10 KNOTS
6+
NIL
10000 SCATTERED
REMARKS
THE FORECAST IS BASED ON AUTOMATIC OBSERVATIONS - THE NEXT FORECAST WILL BE ISSUED AT 1145 UTC ON DAY 24


Your time UTC time
Weather data provided by Environment Canada and NAV CANADA